sensor_id;sensor_type;location;lat;lon;timestamp;pressure;altitude;pressure_sealevel;temperature;humidity
52953;BME280;38815;55.932;-3.232;2022-10-16T00:00:42;98264.97;;;17.21;56.93
52953;BME280;38815;55.932;-3.232;2022-10-16T00:03:08;98271.94;;;17.20;57.14
52953;BME280;38815;55.932;-3.232;2022-10-16T00:05:38;98272.50;;;17.18;56.84
52953;BME280;38815;55.932;-3.232;2022-10-16T00:08:03;98280.97;;;17.18;57.14
52953;BME280;38815;55.932;-3.232;2022-10-16T00:10:29;98285.13;;;17.17;57.09
52953;BME280;38815;55.932;-3.232;2022-10-16T00:12:54;98275.91;;;17.17;57.52
52953;BME280;38815;55.932;-3.232;2022-10-16T00:15:19;98282.84;;;17.16;57.23
52953;BME280;38815;55.932;-3.232;2022-10-16T00:17:44;98285.69;;;17.16;57.47
52953;BME280;38815;55.932;-3.232;2022-10-16T00:20:10;98280.63;;;17.14;56.97
52953;BME280;38815;55.932;-3.232;2022-10-16T00:22:35;98291.91;;;17.14;56.72
52953;BME280;38815;55.932;-3.232;2022-10-16T00:25:00;98300.94;;;17.13;56.90
52953;BME280;38815;55.932;-3.232;2022-10-16T00:27:25;98303.00;;;17.12;57.04
52953;BME280;38815;55.932;-3.232;2022-10-16T00:29:51;98309.97;;;17.11;57.19
52953;BME280;38815;55.932;-3.232;2022-10-16T00:32:17;98305.66;;;17.10;57.15
52953;BME280;38815;55.932;-3.232;2022-10-16T00:34:43;98314.13;;;17.10;57.23
52953;BME280;38815;55.932;-3.232;2022-10-16T00:37:08;98309.78;;;17.09;57.03
52953;BME280;38815;55.932;-3.232;2022-10-16T00:39:33;98309.06;;;17.09;57.47
52953;BME280;38815;55.932;-3.232;2022-10-16T00:41:59;98302.69;;;17.08;57.12
52953;BME280;38815;55.932;-3.232;2022-10-16T00:49:51;98315.13;;;17.05;57.00
52953;BME280;38815;55.932;-3.232;2022-10-16T00:52:18;98313.63;;;17.04;57.13
52953;BME280;38815;55.932;-3.232;2022-10-16T00:54:44;98325.63;;;17.05;57.23
52953;BME280;38815;55.932;-3.232;2022-10-16T00:57:11;98333.31;;;17.04;57.06
52953;BME280;38815;55.932;-3.232;2022-10-16T00:59:37;98340.28;;;17.03;57.50
52953;BME280;38815;55.932;-3.232;2022-10-16T01:02:04;98346.50;;;17.02;57.34
52953;BME280;38815;55.932;-3.232;2022-10-16T01:04:31;98350.63;;;17.01;57.55
52953;BME280;38815;55.932;-3.232;2022-10-16T01:09:35;98364.53;;;16.99;57.03
52953;BME280;38815;55.932;-3.232;2022-10-16T01:12:06;98364.53;;;16.99;57.17
52953;BME280;38815;55.932;-3.232;2022-10-16T01:14:40;98361.00;;;16.98;57.25
52953;BME280;38815;55.932;-3.232;2022-10-16T01:17:12;98384.81;;;16.97;57.15
52953;BME280;38815;55.932;-3.232;2022-10-16T01:19:56;98381.28;;;16.97;57.47
52953;BME280;38815;55.932;-3.232;2022-10-16T01:22:29;98383.94;;;16.95;57.33
52953;BME280;38815;55.932;-3.232;2022-10-16T01:24:58;98386.00;;;16.94;57.32
52953;BME280;38815;55.932;-3.232;2022-10-16T01:27:25;98394.25;;;16.92;57.24
52953;BME280;38815;55.932;-3.232;2022-10-16T01:35:10;98413.78;;;16.90;57.14
52953;BME280;38815;55.932;-3.232;2022-10-16T01:37:37;98426.38;;;16.89;57.23
52953;BME280;38815;55.932;-3.232;2022-10-16T01:40:06;98438.97;;;16.88;57.35
52953;BME280;38815;55.932;-3.232;2022-10-16T01:42:34;98439.72;;;16.89;57.09
52953;BME280;38815;55.932;-3.232;2022-10-16T01:45:02;98439.72;;;16.89;57.07
52953;BME280;38815;55.932;-3.232;2022-10-16T01:47:31;98445.16;;;16.87;57.30
52953;BME280;38815;55.932;-3.232;2022-10-16T01:49:56;98448.56;;;16.85;57.12
52953;BME280;38815;55.932;-3.232;2022-10-16T01:52:24;98449.91;;;16.84;57.21
52953;BME280;38815;55.932;-3.232;2022-10-16T01:54:51;98457.00;;;16.85;57.53
52953;BME280;38815;55.932;-3.232;2022-10-16T01:57:18;98467.53;;;16.85;57.35
52953;BME280;38815;55.932;-3.232;2022-10-16T01:59:46;98473.00;;;16.83;57.13
52953;BME280;38815;55.932;-3.232;2022-10-16T02:02:13;98477.88;;;16.82;57.08
52953;BME280;38815;55.932;-3.232;2022-10-16T02:04:42;98485.56;;;16.82;56.97
52953;BME280;38815;55.932;-3.232;2022-10-16T02:07:08;98484.81;;;16.81;57.26
52953;BME280;38815;55.932;-3.232;2022-10-16T02:09:34;98482.72;;;16.82;57.08
52953;BME280;38815;55.932;-3.232;2022-10-16T02:12:01;98485.81;;;16.76;57.09
52953;BME280;38815;55.932;-3.232;2022-10-16T02:14:28;98493.25;;;16.81;57.15
52953;BME280;38815;55.932;-3.232;2022-10-16T02:16:54;98500.94;;;16.81;57.16
52953;BME280;38815;55.932;-3.232;2022-10-16T02:19:19;98508.66;;;16.80;57.33
52953;BME280;38815;55.932;-3.232;2022-10-16T02:24:14;98508.66;;;16.80;57.02
52953;BME280;38815;55.932;-3.232;2022-10-16T02:26:51;98524.81;;;16.80;57.04
52953;BME280;38815;55.932;-3.232;2022-10-16T02:29:19;98514.09;;;16.78;57.27
52953;BME280;38815;55.932;-3.232;2022-10-16T02:31:46;98517.50;;;16.77;57.24
52953;BME280;38815;55.932;-3.232;2022-10-16T02:34:14;98535.72;;;16.76;57.11
52953;BME280;38815;55.932;-3.232;2022-10-16T02:36:41;98528.03;;;16.76;57.31
52953;BME280;38815;55.932;-3.232;2022-10-16T02:39:06;98535.72;;;16.76;57.28
52953;BME280;38815;55.932;-3.232;2022-10-16T02:41:33;98543.97;;;16.74;56.96
52953;BME280;38815;55.932;-3.232;2022-10-16T02:43:58;98537.00;;;16.75;57.44
52953;BME280;38815;55.932;-3.232;2022-10-16T02:46:23;98548.13;;;16.73;57.21
52953;BME280;38815;55.932;-3.232;2022-10-16T02:48:48;98550.19;;;16.72;57.27
52953;BME280;38815;55.932;-3.232;2022-10-16T02:51:14;98557.13;;;16.71;57.29
52953;BME280;38815;55.932;-3.232;2022-10-16T02:53:39;98574.03;;;16.71;57.08
52953;BME280;38815;55.932;-3.232;2022-10-16T02:56:04;98575.31;;;16.70;57.33
52953;BME280;38815;55.932;-3.232;2022-10-16T02:58:30;98580.19;;;16.70;57.27
52953;BME280;38815;55.932;-3.232;2022-10-16T03:00:55;98577.97;;;16.68;57.04
52953;BME280;38815;55.932;-3.232;2022-10-16T03:03:20;98584.91;;;16.67;57.09
52953;BME280;38815;55.932;-3.232;2022-10-16T03:05:45;98592.59;;;16.67;57.07
52953;BME280;38815;55.932;-3.232;2022-10-16T03:08:11;98590.38;;;16.65;57.27
52953;BME280;38815;55.932;-3.232;2022-10-16T03:10:37;98586.81;;;16.65;57.40
52953;BME280;38815;55.932;-3.232;2022-10-16T03:13:02;98579.69;;;16.64;57.19
52953;BME280;38815;55.932;-3.232;2022-10-16T03:15:27;98586.06;;;16.64;56.90
52953;BME280;38815;55.932;-3.232;2022-10-16T03:17:53;98583.06;;;16.62;56.87
52953;BME280;38815;55.932;-3.232;2022-10-16T03:20:19;98587.94;;;16.62;56.95
52953;BME280;38815;55.932;-3.232;2022-10-16T03:22:44;98597.88;;;16.63;57.31
52953;BME280;38815;55.932;-3.232;2022-10-16T03:25:09;98596.38;;;16.62;57.23
52953;BME280;38815;55.932;-3.232;2022-10-16T03:27:35;98592.81;;;16.61;57.20
52953;BME280;38815;55.932;-3.232;2022-10-16T03:30:00;98589.28;;;16.61;57.23
52953;BME280;38815;55.932;-3.232;2022-10-16T03:32:25;98592.09;;;16.61;56.92
52953;BME280;38815;55.932;-3.232;2022-10-16T03:34:50;98606.16;;;16.61;57.26
52953;BME280;38815;55.932;-3.232;2022-10-16T03:37:16;98628.66;;;16.61;57.36
52953;BME280;38815;55.932;-3.232;2022-10-16T03:39:41;98644.03;;;16.60;56.97
52953;BME280;38815;55.932;-3.232;2022-10-16T03:42:06;98647.44;;;16.58;57.31
52953;BME280;38815;55.932;-3.232;2022-10-16T03:44:32;98633.94;;;16.57;57.10
52953;BME280;38815;55.932;-3.232;2022-10-16T03:46:57;98616.69;;;16.53;56.95
52953;BME280;38815;55.932;-3.232;2022-10-16T03:49:22;98630.75;;;16.53;57.22
52953;BME280;38815;55.932;-3.232;2022-10-16T03:51:47;98626.47;;;16.52;57.33
52953;BME280;38815;55.932;-3.232;2022-10-16T03:54:13;98612.41;;;16.52;57.29
52953;BME280;38815;55.932;-3.232;2022-10-16T03:56:38;98627.94;;;16.53;57.38
52953;BME280;38815;55.932;-3.232;2022-10-16T03:59:03;98632.84;;;16.52;57.22
52953;BME280;38815;55.932;-3.232;2022-10-16T04:01:28;98658.16;;;16.52;57.48
52953;BME280;38815;55.932;-3.232;2022-10-16T04:03:54;98651.78;;;16.52;57.16
52953;BME280;38815;55.932;-3.232;2022-10-16T04:06:19;98640.53;;;16.52;57.30
52953;BME280;38815;55.932;-3.232;2022-10-16T04:08:44;98655.16;;;16.50;57.53
52953;BME280;38815;55.932;-3.232;2022-10-16T04:11:10;98649.53;;;16.50;57.22
52953;BME280;38815;55.932;-3.232;2022-10-16T04:13:35;98661.38;;;16.49;56.91
52953;BME280;38815;55.932;-3.232;2022-10-16T04:16:01;98662.84;;;16.50;57.22
52953;BME280;38815;55.932;-3.232;2022-10-16T04:18:27;98669.03;;;16.48;57.21
52953;BME280;38815;55.932;-3.232;2022-10-16T04:20:53;98670.53;;;16.49;57.25
52953;BME280;38815;55.932;-3.232;2022-10-16T04:23:18;98657.78;;;16.48;57.47
52953;BME280;38815;55.932;-3.232;2022-10-16T04:25:43;98654.22;;;16.48;57.12
52953;BME280;38815;55.932;-3.232;2022-10-16T04:28:09;98652.16;;;16.48;57.09
52953;BME280;38815;55.932;-3.232;2022-10-16T04:30:34;98652.16;;;16.48;57.58
52953;BME280;38815;55.932;-3.232;2022-10-16T04:32:59;98646.53;;;16.48;57.12
52953;BME280;38815;55.932;-3.232;2022-10-16T04:35:24;98652.75;;;16.47;57.19
52953;BME280;38815;55.932;-3.232;2022-10-16T04:37:49;98658.16;;;16.44;57.31
52953;BME280;38815;55.932;-3.232;2022-10-16T04:40:15;98657.41;;;16.44;57.34
52953;BME280;38815;55.932;-3.232;2022-10-16T04:42:41;98651.06;;;16.43;57.44
52953;BME280;38815;55.932;-3.232;2022-10-16T04:45:06;98648.78;;;16.42;57.41
52953;BME280;38815;55.932;-3.232;2022-10-16T04:47:32;98656.50;;;16.41;57.29
52953;BME280;38815;55.932;-3.232;2022-10-16T04:49:57;98650.13;;;16.41;57.36
52953;BME280;38815;55.932;-3.232;2022-10-16T04:52:26;98644.31;;;16.39;57.00
52953;BME280;38815;55.932;-3.232;2022-10-16T04:54:51;98646.41;;;16.38;56.97
52953;BME280;38815;55.932;-3.232;2022-10-16T04:57:16;98647.88;;;16.39;57.62
52953;BME280;38815;55.932;-3.232;2022-10-16T04:59:42;98642.81;;;16.38;57.54
52953;BME280;38815;55.932;-3.232;2022-10-16T05:02:07;98651.84;;;16.36;57.25
52953;BME280;38815;55.932;-3.232;2022-10-16T05:04:32;98648.25;;;16.36;57.45
52953;BME280;38815;55.932;-3.232;2022-10-16T05:06:58;98639.06;;;16.35;57.40
52953;BME280;38815;55.932;-3.232;2022-10-16T05:09:23;98644.69;;;16.35;57.31
52953;BME280;38815;55.932;-3.232;2022-10-16T05:11:48;98652.41;;;16.35;57.45
52953;BME280;38815;55.932;-3.232;2022-10-16T05:14:13;98650.31;;;16.35;57.33
52953;BME280;38815;55.932;-3.232;2022-10-16T05:16:39;98647.50;;;16.35;57.63
52953;BME280;38815;55.932;-3.232;2022-10-16T05:19:04;98643.22;;;16.34;57.60
52953;BME280;38815;55.932;-3.232;2022-10-16T05:21:29;98641.16;;;16.35;57.40
52953;BME280;38815;55.932;-3.232;2022-10-16T05:23:54;98638.88;;;16.33;57.55
52953;BME280;38815;55.932;-3.232;2022-10-16T05:26:20;98632.53;;;16.33;57.32
52953;BME280;38815;55.932;-3.232;2022-10-16T05:28:45;98637.41;;;16.32;57.42
52953;BME280;38815;55.932;-3.232;2022-10-16T05:31:11;98628.97;;;16.32;57.27
52953;BME280;38815;55.932;-3.232;2022-10-16T05:33:36;98625.97;;;16.30;57.24
52953;BME280;38815;55.932;-3.232;2022-10-16T05:36:02;98623.91;;;16.31;57.48
52953;BME280;38815;55.932;-3.232;2022-10-16T05:38:28;98628.78;;;16.30;57.37
52953;BME280;38815;55.932;-3.232;2022-10-16T05:40:53;98623.75;;;16.29;57.52
52953;BME280;38815;55.932;-3.232;2022-10-16T05:43:19;98638.94;;;16.26;57.38
52953;BME280;38815;55.932;-3.232;2022-10-16T05:45:44;98645.31;;;16.26;57.35
52953;BME280;38815;55.932;-3.232;2022-10-16T05:48:17;98666.13;;;16.23;57.49
52953;BME280;38815;55.932;-3.232;2022-10-16T05:50:43;98646.28;;;16.21;57.67
52953;BME280;38815;55.932;-3.232;2022-10-16T05:53:08;98671.41;;;16.19;57.64
52953;BME280;38815;55.932;-3.232;2022-10-16T05:55:33;98671.41;;;16.19;57.39
52953;BME280;38815;55.932;-3.232;2022-10-16T05:57:59;98672.53;;;16.16;57.55
52953;BME280;38815;55.932;-3.232;2022-10-16T06:00:24;98678.72;;;16.15;57.50
52953;BME280;38815;55.932;-3.232;2022-10-16T06:02:49;98682.66;;;16.12;57.48
52953;BME280;38815;55.932;-3.232;2022-10-16T06:05:14;98692.25;;;16.09;57.79
52953;BME280;38815;55.932;-3.232;2022-10-16T06:07:40;98706.28;;;16.09;57.72
52953;BME280;38815;55.932;-3.232;2022-10-16T06:10:05;98722.97;;;16.07;57.46
52953;BME280;38815;55.932;-3.232;2022-10-16T06:12:30;98718.84;;;16.08;57.75
52953;BME280;38815;55.932;-3.232;2022-10-16T06:14:56;98724.84;;;16.04;57.54
52953;BME280;38815;55.932;-3.232;2022-10-16T06:17:21;98743.03;;;16.03;57.43
52953;BME280;38815;55.932;-3.232;2022-10-16T06:19:46;98750.91;;;16.05;57.85
52953;BME280;38815;55.932;-3.232;2022-10-16T06:22:11;98773.38;;;16.05;57.56
52953;BME280;38815;55.932;-3.232;2022-10-16T06:24:37;98758.56;;;16.04;57.69
52953;BME280;38815;55.932;-3.232;2022-10-16T06:27:03;98777.72;;;16.06;57.52
52953;BME280;38815;55.932;-3.232;2022-10-16T06:29:28;98787.44;;;16.05;57.87
52953;BME280;38815;55.932;-3.232;2022-10-16T06:31:53;98785.94;;;16.04;57.61
52953;BME280;38815;55.932;-3.232;2022-10-16T06:34:19;98806.34;;;16.04;57.66
52953;BME280;38815;55.932;-3.232;2022-10-16T06:36:44;98812.72;;;16.05;57.54
52953;BME280;38815;55.932;-3.232;2022-10-16T06:39:09;98825.31;;;16.04;57.68
52953;BME280;38815;55.932;-3.232;2022-10-16T06:41:34;98839.91;;;16.02;57.52
52953;BME280;38815;55.932;-3.232;2022-10-16T06:44:00;98849.66;;;16.01;57.62
52953;BME280;38815;55.932;-3.232;2022-10-16T06:46:25;98854.34;;;15.99;57.44
52953;BME280;38815;55.932;-3.232;2022-10-16T06:48:52;98859.97;;;15.99;57.91
52953;BME280;38815;55.932;-3.232;2022-10-16T06:51:18;98876.84;;;15.99;57.64
52953;BME280;38815;55.932;-3.232;2022-10-16T06:53:47;98895.19;;;16.00;57.72
52953;BME280;38815;55.932;-3.232;2022-10-16T06:56:17;98914.88;;;16.00;57.59
52953;BME280;38815;55.932;-3.232;2022-10-16T06:58:43;98919.00;;;15.99;57.48
52953;BME280;38815;55.932;-3.232;2022-10-16T07:01:09;98933.25;;;16.01;57.51
52953;BME280;38815;55.932;-3.232;2022-10-16T07:03:37;98932.69;;;16.02;57.48
52953;BME280;38815;55.932;-3.232;2022-10-16T07:06:04;98931.91;;;16.02;57.57
52953;BME280;38815;55.932;-3.232;2022-10-16T07:08:33;98934.72;;;16.02;57.43
52953;BME280;38815;55.932;-3.232;2022-10-16T07:11:02;98940.91;;;16.00;57.53
52953;BME280;38815;55.932;-3.232;2022-10-16T07:13:28;98956.47;;;16.01;57.48
52953;BME280;38815;55.932;-3.232;2022-10-16T07:15:53;98963.59;;;16.02;57.49
52953;BME280;38815;55.932;-3.232;2022-10-16T07:18:18;98967.91;;;16.03;57.56
52953;BME280;38815;55.932;-3.232;2022-10-16T07:20:44;98987.00;;;16.05;57.22
52953;BME280;38815;55.932;-3.232;2022-10-16T07:23:09;99004.84;;;16.07;57.45
52953;BME280;38815;55.932;-3.232;2022-10-16T07:25:34;99002.75;;;16.08;57.39
52953;BME280;38815;55.932;-3.232;2022-10-16T07:27:59;99025.44;;;16.10;57.14
52953;BME280;38815;55.932;-3.232;2022-10-16T07:30:25;99033.31;;;16.11;57.44
52953;BME280;38815;55.932;-3.232;2022-10-16T07:32:50;99017.19;;;16.12;57.51
52953;BME280;38815;55.932;-3.232;2022-10-16T07:35:15;99027.88;;;16.13;57.20
52953;BME280;38815;55.932;-3.232;2022-10-16T07:37:43;99037.06;;;16.14;56.98
52953;BME280;38815;55.932;-3.232;2022-10-16T07:40:09;99045.50;;;16.14;56.92
52953;BME280;38815;55.932;-3.232;2022-10-16T07:42:34;99047.75;;;16.15;57.06
52953;BME280;38815;55.932;-3.232;2022-10-16T07:44:59;99036.50;;;16.15;57.02
52953;BME280;38815;55.932;-3.232;2022-10-16T07:47:25;99052.81;;;16.17;56.83
52953;BME280;38815;55.932;-3.232;2022-10-16T07:49:50;99064.25;;;16.19;56.83
52953;BME280;38815;55.932;-3.232;2022-10-16T07:52:15;99066.31;;;16.18;56.70
52953;BME280;38815;55.932;-3.232;2022-10-16T07:54:41;99091.06;;;16.20;56.62
52953;BME280;38815;55.932;-3.232;2022-10-16T07:57:06;99086.19;;;16.20;56.72
52953;BME280;38815;55.932;-3.232;2022-10-16T07:59:31;99105.31;;;16.22;56.45
52953;BME280;38815;55.932;-3.232;2022-10-16T08:01:57;99114.50;;;16.22;56.44
52953;BME280;38815;55.932;-3.232;2022-10-16T08:04:22;99137.22;;;16.24;56.63
52953;BME280;38815;55.932;-3.232;2022-10-16T08:06:47;99141.50;;;16.25;56.49
52953;BME280;38815;55.932;-3.232;2022-10-16T08:09:14;99142.28;;;16.26;56.44
52953;BME280;38815;55.932;-3.232;2022-10-16T08:11:40;99158.59;;;16.27;56.56
52953;BME280;38815;55.932;-3.232;2022-10-16T08:14:05;99156.53;;;16.28;56.53
52953;BME280;38815;55.932;-3.232;2022-10-16T08:16:30;99172.09;;;16.29;56.30
52953;BME280;38815;55.932;-3.232;2022-10-16T08:18:56;99184.84;;;16.30;56.50
52953;BME280;38815;55.932;-3.232;2022-10-16T08:21:23;99193.28;;;16.30;56.39
52953;BME280;38815;55.932;-3.232;2022-10-16T08:23:49;99212.41;;;16.31;56.44
52953;BME280;38815;55.932;-3.232;2022-10-16T08:26:15;99212.59;;;16.33;56.45
52953;BME280;38815;55.932;-3.232;2022-10-16T08:28:40;99241.47;;;16.34;56.04
52953;BME280;38815;55.932;-3.232;2022-10-16T08:31:06;99247.31;;;16.36;56.20
52953;BME280;38815;55.932;-3.232;2022-10-16T08:33:32;99264.94;;;16.36;56.07
52953;BME280;38815;55.932;-3.232;2022-10-16T08:35:57;99272.25;;;16.39;56.36
52953;BME280;38815;55.932;-3.232;2022-10-16T08:38:22;99299.63;;;16.39;56.50
52953;BME280;38815;55.932;-3.232;2022-10-16T08:40:47;99303.41;;;16.41;56.57
52953;BME280;38815;55.932;-3.232;2022-10-16T08:51:16;99349.03;;;16.48;56.42
52953;BME280;38815;55.932;-3.232;2022-10-16T08:53:43;99344.16;;;16.48;56.92
52953;BME280;38815;55.932;-3.232;2022-10-16T08:56:09;99359.72;;;16.49;56.77
52953;BME280;38815;55.932;-3.232;2022-10-16T08:58:35;99364.81;;;16.51;56.42
52953;BME280;38815;55.932;-3.232;2022-10-16T09:01:01;99379.06;;;16.53;56.46
52953;BME280;38815;55.932;-3.232;2022-10-16T09:08:50;99382.84;;;16.55;56.41
52953;BME280;38815;55.932;-3.232;2022-10-16T09:19:44;99396.75;;;16.61;56.86
52953;BME280;38815;55.932;-3.232;2022-10-16T09:22:15;99401.84;;;16.62;57.00
52953;BME280;38815;55.932;-3.232;2022-10-16T09:24:40;99408.19;;;16.63;56.71
52953;BME280;38815;55.932;-3.232;2022-10-16T09:27:14;99411.97;;;16.65;56.91
52953;BME280;38815;55.932;-3.232;2022-10-16T09:29:40;99420.41;;;16.65;56.76
52953;BME280;38815;55.932;-3.232;2022-10-16T09:32:17;99423.22;;;16.65;56.94
52953;BME280;38815;55.932;-3.232;2022-10-16T09:34:45;99433.72;;;16.65;56.64
52953;BME280;38815;55.932;-3.232;2022-10-16T09:37:12;99438.63;;;16.64;56.81
52953;BME280;38815;55.932;-3.232;2022-10-16T09:39:46;99432.22;;;16.64;56.61
52953;BME280;38815;55.932;-3.232;2022-10-16T09:42:31;99440.66;;;16.64;56.37
52953;BME280;38815;55.932;-3.232;2022-10-16T09:44:57;99449.66;;;16.62;56.64
52953;BME280;38815;55.932;-3.232;2022-10-16T09:47:23;99451.94;;;16.64;56.49
52953;BME280;38815;55.932;-3.232;2022-10-16T09:49:57;99463.75;;;16.62;55.94
52953;BME280;38815;55.932;-3.232;2022-10-16T09:52:25;99472.19;;;16.62;55.98
52953;BME280;38815;55.932;-3.232;2022-10-16T09:54:51;99486.25;;;16.62;55.73
52953;BME280;38815;55.932;-3.232;2022-10-16T09:57:17;99479.09;;;16.61;55.96
52953;BME280;38815;55.932;-3.232;2022-10-16T09:59:46;99491.88;;;16.62;55.70
52953;BME280;38815;55.932;-3.232;2022-10-16T10:02:12;99503.69;;;16.61;55.97
52953;BME280;38815;55.932;-3.232;2022-10-16T10:04:57;99493.00;;;16.59;55.77
52953;BME280;38815;55.932;-3.232;2022-10-16T10:07:32;99504.25;;;16.59;55.54
52953;BME280;38815;55.932;-3.232;2022-10-16T10:09:59;99500.66;;;16.59;55.77
52953;BME280;38815;55.932;-3.232;2022-10-16T10:12:26;99509.09;;;16.59;55.75
52953;BME280;38815;55.932;-3.232;2022-10-16T10:14:52;99516.78;;;16.58;55.50
52953;BME280;38815;55.932;-3.232;2022-10-16T10:17:22;99524.47;;;16.58;55.69
52953;BME280;38815;55.932;-3.232;2022-10-16T10:22:21;99537.03;;;16.57;55.39
52953;BME280;38815;55.932;-3.232;2022-10-16T10:24:57;99551.66;;;16.55;55.41
52953;BME280;38815;55.932;-3.232;2022-10-16T10:27:31;99559.53;;;16.57;55.59
52953;BME280;38815;55.932;-3.232;2022-10-16T10:32:26;99556.53;;;16.55;55.50
52953;BME280;38815;55.932;-3.232;2022-10-16T10:35:19;99567.00;;;16.54;55.75
52953;BME280;38815;55.932;-3.232;2022-10-16T10:42:53;99593.66;;;16.53;55.61
52953;BME280;38815;55.932;-3.232;2022-10-16T10:47:52;99600.59;;;16.52;55.71
52953;BME280;38815;55.932;-3.232;2022-10-16T10:50:55;99611.09;;;16.52;55.13
52953;BME280;38815;55.932;-3.232;2022-10-16T10:55:45;99603.97;;;16.51;55.39
52953;BME280;38815;55.932;-3.232;2022-10-16T11:01:01;99615.00;;;16.49;55.37
52953;BME280;38815;55.932;-3.232;2022-10-16T11:06:17;99622.66;;;16.48;55.08
52953;BME280;38815;55.932;-3.232;2022-10-16T11:08:48;99635.97;;;16.48;55.10
52953;BME280;38815;55.932;-3.232;2022-10-16T11:16:28;99645.72;;;16.47;55.33
52953;BME280;38815;55.932;-3.232;2022-10-16T11:19:03;99640.09;;;16.47;55.10
52953;BME280;38815;55.932;-3.232;2022-10-16T11:21:36;99658.25;;;16.45;55.10
52953;BME280;38815;55.932;-3.232;2022-10-16T11:24:06;99651.88;;;16.45;55.41
52953;BME280;38815;55.932;-3.232;2022-10-16T11:26:39;99659.56;;;16.44;55.35
52953;BME280;38815;55.932;-3.232;2022-10-16T11:29:07;99669.31;;;16.43;54.94
52953;BME280;38815;55.932;-3.232;2022-10-16T11:31:41;99686.19;;;16.43;54.91
52953;BME280;38815;55.932;-3.232;2022-10-16T11:36:41;99697.22;;;16.41;55.08
52953;BME280;38815;55.932;-3.232;2022-10-16T11:39:20;99701.53;;;16.42;54.91
52953;BME280;38815;55.932;-3.232;2022-10-16T11:41:48;99724.03;;;16.42;54.97
52953;BME280;38815;55.932;-3.232;2022-10-16T11:46:40;99722.22;;;16.45;55.68
52953;BME280;38815;55.932;-3.232;2022-10-16T11:49:13;99735.22;;;16.48;56.02
52953;BME280;38815;55.932;-3.232;2022-10-16T11:51:52;99737.34;;;16.55;55.83
52953;BME280;38815;55.932;-3.232;2022-10-16T11:57:11;99740.47;;;16.65;55.42
52953;BME280;38815;55.932;-3.232;2022-10-16T12:04:49;99754.09;;;16.74;55.69
52953;BME280;38815;55.932;-3.232;2022-10-16T12:07:19;99764.78;;;16.75;55.38
52953;BME280;38815;55.932;-3.232;2022-10-16T12:09:47;99760.88;;;16.78;56.59
52953;BME280;38815;55.932;-3.232;2022-10-16T12:12:37;99770.09;;;16.79;56.42
52953;BME280;38815;55.932;-3.232;2022-10-16T12:17:45;99767.69;;;16.83;56.01
52953;BME280;38815;55.932;-3.232;2022-10-16T12:22:47;99773.34;;;16.83;56.84
52953;BME280;38815;55.932;-3.232;2022-10-16T12:27:58;99786.63;;;16.82;56.75
52953;BME280;38815;55.932;-3.232;2022-10-16T12:30:24;99794.88;;;16.80;56.07
52953;BME280;38815;55.932;-3.232;2022-10-16T12:32:55;99791.31;;;16.80;55.78
52953;BME280;38815;55.932;-3.232;2022-10-16T12:35:22;99797.69;;;16.80;55.82
52953;BME280;38815;55.932;-3.232;2022-10-16T12:37:48;99803.09;;;16.78;56.04
52953;BME280;38815;55.932;-3.232;2022-10-16T12:42:52;99822.81;;;16.78;55.62
52953;BME280;38815;55.932;-3.232;2022-10-16T12:45:33;99827.69;;;16.78;56.00
52953;BME280;38815;55.932;-3.232;2022-10-16T12:48:02;99824.88;;;16.78;55.01
52953;BME280;38815;55.932;-3.232;2022-10-16T12:52:56;99817.00;;;16.76;55.19
52953;BME280;38815;55.932;-3.232;2022-10-16T12:55:22;99817.00;;;16.76;54.73
52953;BME280;38815;55.932;-3.232;2022-10-16T13:01:09;99833.66;;;16.74;55.55
52953;BME280;38815;55.932;-3.232;2022-10-16T13:05:54;99849.78;;;16.74;56.00
52953;BME280;38815;55.932;-3.232;2022-10-16T13:08:35;99845.47;;;16.73;56.21
52953;BME280;38815;55.932;-3.232;2022-10-16T13:21:20;99873.28;;;16.76;56.75
52953;BME280;38815;55.932;-3.232;2022-10-16T13:23:57;99884.00;;;16.78;57.16
52953;BME280;38815;55.932;-3.232;2022-10-16T13:26:39;99883.22;;;16.77;57.40
52953;BME280;38815;55.932;-3.232;2022-10-16T13:29:07;99885.28;;;16.77;56.90
52953;BME280;38815;55.932;-3.232;2022-10-16T13:31:32;99905.19;;;16.79;57.07
52953;BME280;38815;55.932;-3.232;2022-10-16T13:33:59;99888.84;;;16.77;56.45
52953;BME280;38815;55.932;-3.232;2022-10-16T13:36:26;99895.25;;;16.78;56.71
52953;BME280;38815;55.932;-3.232;2022-10-16T13:41:35;99898.06;;;16.78;57.42
52953;BME280;38815;55.932;-3.232;2022-10-16T13:44:01;99903.69;;;16.78;56.54
52953;BME280;38815;55.932;-3.232;2022-10-16T13:46:26;99901.63;;;16.78;56.51
52953;BME280;38815;55.932;-3.232;2022-10-16T13:49:05;99907.06;;;16.76;56.24
52953;BME280;38815;55.932;-3.232;2022-10-16T13:51:31;99909.88;;;16.76;56.04
52953;BME280;38815;55.932;-3.232;2022-10-16T13:53:57;99912.69;;;16.76;56.33
52953;BME280;38815;55.932;-3.232;2022-10-16T13:56:24;99918.84;;;16.75;56.28
52953;BME280;38815;55.932;-3.232;2022-10-16T13:59:00;99923.19;;;16.76;56.06
52953;BME280;38815;55.932;-3.232;2022-10-16T14:01:27;99921.66;;;16.75;56.19
52953;BME280;38815;55.932;-3.232;2022-10-16T14:03:59;99917.56;;;16.76;56.72
52953;BME280;38815;55.932;-3.232;2022-10-16T14:06:25;99912.56;;;16.69;56.61
52953;BME280;38815;55.932;-3.232;2022-10-16T14:08:57;99926.00;;;16.76;56.05
52953;BME280;38815;55.932;-3.232;2022-10-16T14:11:24;99919.81;;;16.77;56.45
52953;BME280;38815;55.932;-3.232;2022-10-16T14:13:50;99914.75;;;16.76;56.35
52953;BME280;38815;55.932;-3.232;2022-10-16T14:16:20;99932.41;;;16.76;56.93
52953;BME280;38815;55.932;-3.232;2022-10-16T14:18:49;99927.50;;;16.77;57.31
52953;BME280;38815;55.932;-3.232;2022-10-16T14:21:17;99931.31;;;16.79;57.56
52953;BME280;38815;55.932;-3.232;2022-10-16T14:23:43;99934.88;;;16.80;58.35
52953;BME280;38815;55.932;-3.232;2022-10-16T14:28:34;99942.78;;;16.81;58.60
52953;BME280;38815;55.932;-3.232;2022-10-16T14:31:00;99949.16;;;16.82;59.28
52953;BME280;38815;55.932;-3.232;2022-10-16T14:36:02;99944.28;;;16.82;58.47
52953;BME280;38815;55.932;-3.232;2022-10-16T14:38:28;99951.41;;;16.83;58.47
52953;BME280;38815;55.932;-3.232;2022-10-16T14:40:54;99954.22;;;16.83;58.18
52953;BME280;38815;55.932;-3.232;2022-10-16T14:43:29;99945.28;;;16.85;58.42